Time;durP1;ratioP1;P1;durP2;ratioP2;P2;SDS_P1;SDS_P2;PMS_P1;PMS_P2;Temp;Humidity;BMP_temperature;BMP_pressure;BME280_temperature;BME280_humidity;BME280_pressure;Samples;Min_cycle;Max_cycle;Signal;HPM_P1;HPM_P2
2021/03/30 00:00:51;;;;;;;12.73;4.55;;;;;;;;;;6242973;23;20008;-74
2021/03/30 00:03:17;;;;;;;12.18;4.07;;;;;;;;;;6191575;22;20124;-75
2021/03/30 00:05:43;;;;;;;13.50;3.65;;;;;;;;;;6216304;23;20008;-75
2021/03/30 00:08:09;;;;;;;15.63;3.88;;;;;;;;;;6216488;23;20000;-75
2021/03/30 00:10:37;;;;;;;15.48;4.00;;;;;;;;;;6217422;23;20337;-75
2021/03/30 00:13:04;;;;;;;12.77;3.22;;;;;;;;;;6219054;23;20022;-75
2021/03/30 00:15:30;;;;;;;11.07;3.40;;;;;;;;;;6196831;22;20326;-75
2021/03/30 00:17:56;;;;;;;11.50;3.15;;;;;;;;;;6217143;23;20000;-75
2021/03/30 00:20:22;;;;;;;11.43;3.25;;;;;;;;;;6193565;22;20065;-74
2021/03/30 00:22:48;;;;;;;14.43;3.55;;;;;;;;;;6193281;22;20024;-75
2021/03/30 00:25:14;;;;;;;10.80;4.15;;;;;;;;;;6217849;23;20497;-75
2021/03/30 00:27:40;;;;;;;12.77;3.50;;;;;;;;;;6218074;23;20000;-77
2021/03/30 00:30:08;;;;;;;10.68;3.75;;;;;;;;;;6219476;23;20100;-75
2021/03/30 00:32:33;;;;;;;13.65;3.53;;;;;;;;;;6195257;22;20008;-77
2021/03/30 00:35:00;;;;;;;16.17;4.05;;;;;;;;;;6223241;23;20472;-75
2021/03/30 00:37:26;;;;;;;12.90;3.00;;;;;;;;;;6200017;22;20000;-77
2021/03/30 00:39:52;;;;;;;8.90;3.00;;;;;;;;;;6224261;22;20391;-75
2021/03/30 00:42:18;;;;;;;13.57;4.00;;;;;;;;;;6224774;23;20004;-76
2021/03/30 00:44:45;;;;;;;11.90;3.90;;;;;;;;;;6225064;23;20004;-77
2021/03/30 00:47:12;;;;;;;16.13;3.47;;;;;;;;;;6224268;23;20087;-77
2021/03/30 00:49:38;;;;;;;9.60;3.53;;;;;;;;;;6224271;23;20418;-76
2021/03/30 00:52:04;;;;;;;12.80;3.42;;;;;;;;;;6222733;23;20004;-76
2021/03/30 00:54:30;;;;;;;13.10;3.70;;;;;;;;;;6216558;23;20442;-76
2021/03/30 00:56:56;;;;;;;10.02;3.13;;;;;;;;;;6242442;23;20031;-76
2021/03/30 00:59:22;;;;;;;8.95;3.42;;;;;;;;;;6216482;23;20000;-76
2021/03/30 01:01:48;;;;;;;12.23;3.65;;;;;;;;;;6242991;23;20056;-76
2021/03/30 01:04:14;;;;;;;9.95;3.40;;;;;;;;;;6242698;23;20001;-76
2021/03/30 01:06:40;;;;;;;14.65;3.65;;;;;;;;;;6215768;23;20057;-76
2021/03/30 01:09:15;;;;;;;14.02;3.78;;;;;;;;;;6217013;23;20023;-76
2021/03/30 01:11:49;;;;;;;13.48;3.45;;;;;;;;;;6218268;23;20051;-75
2021/03/30 01:14:26;;;;;;;17.67;4.32;;;;;;;;;;6217907;23;20008;-76
2021/03/30 01:16:56;;;;;;;12.35;3.75;;;;;;;;;;6218830;23;20008;-76
2021/03/30 01:19:43;;;;;;;11.52;3.90;;;;;;;;;;6218285;23;20004;-76
2021/03/30 01:22:21;;;;;;;21.75;4.10;;;;;;;;;;6219334;23;20023;-76
2021/03/30 01:24:51;;;;;;;13.20;3.60;;;;;;;;;;6222956;23;20430;-76
2021/03/30 01:27:34;;;;;;;14.45;3.70;;;;;;;;;;6218319;23;20370;-75
2021/03/30 01:30:02;;;;;;;17.33;3.80;;;;;;;;;;6218028;23;20008;-77
2021/03/30 01:32:36;;;;;;;14.60;4.03;;;;;;;;;;6219642;23;20012;-76
2021/03/30 01:35:02;;;;;;;;;;;;;;;;;;6221252;23;20012;-77
2021/03/30 01:37:28;;;;;;;12.27;3.88;;;;;;;;;;6220056;22;19904;-76
2021/03/30 01:39:59;;;;;;;16.35;4.80;;;;;;;;;;6194589;22;20008;-76
2021/03/30 01:42:26;;;;;;;20.40;4.28;;;;;;;;;;6218229;23;20007;-76
2021/03/30 01:44:54;;;;;;;15.13;3.63;;;;;;;;;;6217462;23;20057;-76
2021/03/30 01:47:20;;;;;;;14.93;3.95;;;;;;;;;;6244662;23;19996;-76
2021/03/30 01:49:48;;;;;;;18.15;3.47;;;;;;;;;;6218967;23;20004;-76
2021/03/30 01:52:15;;;;;;;14.45;3.95;;;;;;;;;;6194559;22;20012;-75
2021/03/30 01:54:42;;;;;;;16.33;3.75;;;;;;;;;;6219369;23;20001;-76
2021/03/30 01:57:08;;;;;;;18.27;5.43;;;;;;;;;;6221647;23;20015;-76
2021/03/30 01:59:35;;;;;;;14.75;3.63;;;;;;;;;;6225525;23;20011;-77
2021/03/30 02:02:02;;;;;;;15.48;3.70;;;;;;;;;;6222193;23;20008;-77
2021/03/30 02:04:29;;;;;;;15.23;4.22;;;;;;;;;;6245201;23;20071;-75
2021/03/30 02:06:57;;;;;;;18.00;4.45;;;;;;;;;;6192999;22;20065;-75
2021/03/30 02:09:29;;;;;;;16.15;4.35;;;;;;;;;;6217971;23;20008;-76
2021/03/30 02:12:00;;;;;;;13.82;3.55;;;;;;;;;;6218169;23;20008;-76
2021/03/30 02:14:26;;;;;;;14.43;4.18;;;;;;;;;;6195704;22;20008;-76
2021/03/30 02:17:07;;;;;;;14.38;3.40;;;;;;;;;;6218470;22;20011;-76
2021/03/30 02:19:42;;;;;;;16.83;3.35;;;;;;;;;;6246071;23;19997;-75
2021/03/30 02:22:12;;;;;;;19.13;4.45;;;;;;;;;;6221974;23;20027;-76
2021/03/30 02:24:39;;;;;;;15.68;3.85;;;;;;;;;;6217824;23;20008;-76
2021/03/30 02:27:08;;;;;;;21.73;4.90;;;;;;;;;;6217913;23;20057;-75
2021/03/30 02:29:35;;;;;;;9.85;3.67;;;;;;;;;;6218494;23;20363;-76
2021/03/30 02:32:03;;;;;;;12.75;3.28;;;;;;;;;;6247892;23;20287;-77
2021/03/30 02:34:32;;;;;;;13.68;3.28;;;;;;;;;;6222447;23;20008;-76
2021/03/30 02:36:58;;;;;;;11.25;3.55;;;;;;;;;;6217163;23;20363;-75
2021/03/30 02:39:25;;;;;;;14.00;5.05;;;;;;;;;;6216540;23;20015;-76
2021/03/30 02:41:52;;;;;;;13.68;3.25;;;;;;;;;;6243145;23;20329;-76
2021/03/30 02:44:19;;;;;;;16.08;3.45;;;;;;;;;;6216916;23;20011;-76
2021/03/30 02:46:46;;;;;;;12.65;3.78;;;;;;;;;;6217925;23;20004;-76
2021/03/30 02:49:14;;;;;;;11.63;3.45;;;;;;;;;;6216658;23;20015;-76
2021/03/30 02:51:41;;;;;;;11.43;3.22;;;;;;;;;;6217679;23;20008;-75
2021/03/30 02:54:08;;;;;;;13.50;3.97;;;;;;;;;;6216741;23;20012;-76
2021/03/30 02:56:35;;;;;;;21.02;4.70;;;;;;;;;;6217649;23;20087;-76
2021/03/30 02:59:01;;;;;;;10.57;3.80;;;;;;;;;;6216703;23;20485;-75
2021/03/30 03:01:27;;;;;;;10.25;2.90;;;;;;;;;;6192026;22;20441;-75
2021/03/30 03:03:53;;;;;;;8.63;2.80;;;;;;;;;;6216815;23;20015;-76
2021/03/30 03:06:20;;;;;;;15.45;3.58;;;;;;;;;;6191908;22;20087;-76
2021/03/30 03:08:47;;;;;;;12.63;3.53;;;;;;;;;;6243085;23;20380;-76
2021/03/30 03:11:14;;;;;;;9.95;3.00;;;;;;;;;;6217356;23;20098;-75
2021/03/30 03:13:42;;;;;;;12.88;3.67;;;;;;;;;;6243178;23;20011;-76
2021/03/30 03:16:10;;;;;;;9.25;3.17;;;;;;;;;;6216154;23;20004;-76
2021/03/30 03:18:36;;;;;;;10.55;3.55;;;;;;;;;;6243436;23;20008;-76
2021/03/30 03:21:02;;;;;;;9.43;3.20;;;;;;;;;;6191690;22;20451;-76
2021/03/30 03:23:28;;;;;;;10.55;4.60;;;;;;;;;;6192426;22;20489;-76
2021/03/30 03:25:55;;;;;;;10.93;5.35;;;;;;;;;;6193465;22;20004;-76
2021/03/30 03:28:21;;;;;;;11.57;5.47;;;;;;;;;;6217368;23;20042;-75
2021/03/30 03:30:47;;;;;;;14.85;5.43;;;;;;;;;;6192121;22;20012;-75
2021/03/30 03:33:14;;;;;;;11.55;4.28;;;;;;;;;;6218979;22;20008;-75
2021/03/30 03:35:40;;;;;;;9.10;4.55;;;;;;;;;;6217989;23;20000;-75
2021/03/30 03:38:06;;;;;;;17.60;5.78;;;;;;;;;;6217519;23;20418;-75
2021/03/30 03:40:33;;;;;;;10.55;5.32;;;;;;;;;;6194872;22;20019;-76
2021/03/30 03:42:59;;;;;;;12.30;5.22;;;;;;;;;;6225248;23;20006;-77
2021/03/30 03:45:25;;;;;;;13.82;6.28;;;;;;;;;;6220936;23;20007;-75
2021/03/30 03:47:51;;;;;;;16.75;6.22;;;;;;;;;;6220222;23;20000;-75
2021/03/30 03:50:17;;;;;;;11.75;5.97;;;;;;;;;;6195420;22;20018;-75
2021/03/30 03:52:49;;;;;;;13.65;5.78;;;;;;;;;;6220740;23;20112;-75
2021/03/30 03:55:16;;;;;;;9.25;5.47;;;;;;;;;;6220707;23;20000;-75
2021/03/30 03:57:42;;;;;;;12.48;5.97;;;;;;;;;;6222417;23;20041;-75
2021/03/30 04:00:08;;;;;;;11.35;5.50;;;;;;;;;;6224958;23;20010;-75
2021/03/30 04:02:48;;;;;;;12.52;6.40;;;;;;;;;;6225316;22;20060;-76
2021/03/30 04:05:14;;;;;;;11.35;5.47;;;;;;;;;;6224145;23;20011;-75
2021/03/30 04:07:43;;;;;;;10.02;5.80;;;;;;;;;;6223936;23;20005;-77
2021/03/30 04:10:10;;;;;;;13.85;5.80;;;;;;;;;;6223152;23;20099;-76
2021/03/30 04:12:38;;;;;;;12.50;6.05;;;;;;;;;;6244042;23;20387;-76
2021/03/30 04:15:04;;;;;;;13.02;6.45;;;;;;;;;;6217747;23;20001;-75
2021/03/30 04:17:30;;;;;;;13.93;6.30;;;;;;;;;;6198819;22;20004;-76
2021/03/30 04:19:56;;;;;;;13.20;6.50;;;;;;;;;;6252333;23;20453;-76
2021/03/30 04:22:22;;;;;;;14.85;5.90;;;;;;;;;;6191569;22;20016;-75
2021/03/30 04:24:48;;;;;;;11.48;5.80;;;;;;;;;;6191677;22;20012;-76
2021/03/30 04:27:15;;;;;;;13.73;6.60;;;;;;;;;;6217665;23;20004;-75
2021/03/30 04:29:41;;;;;;;11.70;6.82;;;;;;;;;;6216905;23;20005;-75
2021/03/30 04:32:08;;;;;;;15.25;6.65;;;;;;;;;;6217032;23;20004;-76
2021/03/30 04:34:34;;;;;;;9.95;6.88;;;;;;;;;;6193796;22;20091;-75
2021/03/30 04:37:00;;;;;;;10.50;6.78;;;;;;;;;;6217252;23;20083;-75
2021/03/30 04:39:26;;;;;;;12.48;6.13;;;;;;;;;;6192995;22;20081;-75
2021/03/30 04:41:53;;;;;;;16.13;6.28;;;;;;;;;;6219238;23;20376;-75
2021/03/30 04:44:19;;;;;;;9.48;5.97;;;;;;;;;;6195438;22;20008;-76
2021/03/30 04:46:45;;;;;;;13.48;6.43;;;;;;;;;;6250063;23;20000;-76
2021/03/30 04:49:11;;;;;;;14.23;6.35;;;;;;;;;;6220955;23;20007;-76
2021/03/30 04:51:37;;;;;;;10.63;6.35;;;;;;;;;;6222533;23;20030;-76
2021/03/30 04:54:03;;;;;;;14.50;7.07;;;;;;;;;;6225082;23;20363;-75
2021/03/30 04:56:29;;;;;;;11.70;6.38;;;;;;;;;;6218440;23;20008;-75
2021/03/30 04:58:55;;;;;;;15.18;6.82;;;;;;;;;;6192754;22;20004;-75
2021/03/30 05:01:21;;;;;;;10.77;5.78;;;;;;;;;;6192810;22;20094;-75
2021/03/30 05:03:47;;;;;;;15.23;6.63;;;;;;;;;;6244791;23;20007;-75
2021/03/30 05:06:13;;;;;;;15.05;7.38;;;;;;;;;;6218732;23;20004;-76
2021/03/30 05:08:39;;;;;;;15.50;6.50;;;;;;;;;;6193680;22;20008;-76
2021/03/30 05:11:05;;;;;;;13.95;7.10;;;;;;;;;;6193480;22;20016;-76
2021/03/30 05:13:31;;;;;;;10.88;5.75;;;;;;;;;;6194123;22;20008;-76
2021/03/30 05:15:57;;;;;;;11.13;6.30;;;;;;;;;;6194645;22;20467;-75
2021/03/30 05:18:23;;;;;;;16.17;7.03;;;;;;;;;;6218724;23;20056;-76
2021/03/30 05:20:49;;;;;;;9.05;6.07;;;;;;;;;;6218951;23;20053;-76
2021/03/30 05:23:15;;;;;;;11.82;6.60;;;;;;;;;;6194280;22;20090;-76
2021/03/30 05:25:41;;;;;;;12.98;6.30;;;;;;;;;;6221595;23;20011;-75
2021/03/30 05:28:07;;;;;;;10.73;7.10;;;;;;;;;;6199368;22;20430;-76
2021/03/30 05:30:33;;;;;;;13.73;6.78;;;;;;;;;;6198356;22;20100;-76
2021/03/30 05:32:59;;;;;;;15.80;6.47;;;;;;;;;;6195006;22;20019;-75
2021/03/30 05:35:26;;;;;;;12.90;6.43;;;;;;;;;;6219751;23;20334;-76
2021/03/30 05:37:52;;;;;;;14.13;6.85;;;;;;;;;;6195810;22;20057;-75
2021/03/30 05:40:19;;;;;;;15.70;7.03;;;;;;;;;;6222511;22;20068;-76
2021/03/30 05:42:46;;;;;;;16.80;7.38;;;;;;;;;;6221519;23;20012;-76
2021/03/30 05:45:13;;;;;;;11.63;7.15;;;;;;;;;;6221470;23;20032;-76
2021/03/30 05:47:39;;;;;;;14.15;6.80;;;;;;;;;;6221051;23;20004;-76
2021/03/30 05:50:13;;;;;;;15.40;6.90;;;;;;;;;;6197440;22;20004;-77
2021/03/30 05:52:45;;;;;;;13.50;6.63;;;;;;;;;;6245902;23;20005;-76
2021/03/30 05:55:31;;;;;;;12.68;6.68;;;;;;;;;;6218509;23;20004;-75
2021/03/30 05:57:58;;;;;;;10.48;6.50;;;;;;;;;;6219176;22;20028;-77
2021/03/30 06:00:33;;;;;;;13.77;7.25;;;;;;;;;;6195604;22;20012;-77
2021/03/30 06:03:10;;;;;;;14.70;7.40;;;;;;;;;;6226478;23;20083;-77
2021/03/30 06:05:36;;;;;;;12.55;7.10;;;;;;;;;;6220981;23;20000;-76
2021/03/30 06:08:03;;;;;;;17.30;7.60;;;;;;;;;;6217279;23;20004;-77
2021/03/30 06:10:30;;;;;;;12.48;7.03;;;;;;;;;;6193999;22;20042;-76
2021/03/30 06:12:57;;;;;;;16.80;8.35;;;;;;;;;;6193523;22;20008;-76
2021/03/30 06:15:26;;;;;;;15.75;7.70;;;;;;;;;;6221489;23;20004;-76
2021/03/30 06:17:53;;;;;;;18.27;8.32;;;;;;;;;;6217255;23;20457;-75
2021/03/30 06:20:26;;;;;;;17.50;8.15;;;;;;;;;;6217124;23;20430;-75
2021/03/30 06:22:55;;;;;;;14.77;7.43;;;;;;;;;;6245053;23;20080;-75
2021/03/30 06:25:40;;;;;;;18.85;7.63;;;;;;;;;;6217757;23;20437;-76
2021/03/30 06:28:06;;;;;;;;;;;;;;;;;;6218136;23;20106;-76
2021/03/30 06:30:32;;;;;;;20.00;8.30;;;;;;;;;;6219376;22;19904;-77
2021/03/30 06:32:58;;;;;;;19.42;8.52;;;;;;;;;;6194219;22;20027;-76
2021/03/30 06:35:30;;;;;;;18.98;9.30;;;;;;;;;;6194796;22;20001;-76
2021/03/30 06:37:56;;;;;;;14.80;7.72;;;;;;;;;;6225193;23;20004;-77
2021/03/30 06:40:32;;;;;;;16.92;8.10;;;;;;;;;;6223348;23;20016;-79
2021/03/30 06:43:13;;;;;;;20.27;9.02;;;;;;;;;;6199641;22;20012;-79
2021/03/30 06:45:39;;;;;;;21.52;8.82;;;;;;;;;;6202294;22;20012;-78
2021/03/30 06:48:06;;;;;;;16.20;8.15;;;;;;;;;;6198309;22;20004;-79
2021/03/30 06:50:34;;;;;;;13.98;8.45;;;;;;;;;;6226285;22;20035;-79
2021/03/30 06:53:32;;;;;;;17.30;8.73;;;;;;;;;;6225357;23;20004;-79
2021/03/30 06:55:58;;;;;;;23.87;9.57;;;;;;;;;;6231750;23;20008;-79
2021/03/30 06:58:24;;;;;;;19.88;9.38;;;;;;;;;;6207998;22;20014;-79
2021/03/30 07:00:50;;;;;;;21.92;9.80;;;;;;;;;;6208884;22;20008;-78
2021/03/30 07:03:18;;;;;;;16.77;8.07;;;;;;;;;;6231384;23;20005;-79
2021/03/30 07:05:48;;;;;;;20.60;10.25;;;;;;;;;;6232546;23;20024;-78
2021/03/30 07:08:15;;;;;;;14.18;9.38;;;;;;;;;;6232771;22;20004;-78
2021/03/30 07:10:43;;;;;;;17.35;8.60;;;;;;;;;;6230770;23;20014;-79
2021/03/30 07:13:09;;;;;;;21.17;9.10;;;;;;;;;;6230235;23;20015;-78
2021/03/30 07:15:36;;;;;;;15.02;8.77;;;;;;;;;;6227571;23;20095;-78
2021/03/30 07:18:21;;;;;;;16.95;8.63;;;;;;;;;;6219391;23;20005;-78
2021/03/30 07:21:05;;;;;;;15.98;8.20;;;;;;;;;;6245559;23;20067;-79
2021/03/30 07:23:33;;;;;;;16.45;8.27;;;;;;;;;;6245943;23;20015;-78
2021/03/30 07:26:14;;;;;;;15.07;8.20;;;;;;;;;;6219510;23;20000;-78
2021/03/30 07:28:41;;;;;;;15.00;7.60;;;;;;;;;;6219958;23;20012;-79
2021/03/30 07:31:08;;;;;;;12.95;7.30;;;;;;;;;;6193130;22;20104;-78
2021/03/30 07:33:40;;;;;;;13.30;7.43;;;;;;;;;;6218062;23;20008;-79
2021/03/30 07:36:07;;;;;;;14.82;8.27;;;;;;;;;;6218638;23;20004;-79
2021/03/30 07:38:39;;;;;;;20.33;9.68;;;;;;;;;;6192338;22;20019;-79
2021/03/30 07:41:05;;;;;;;17.40;7.38;;;;;;;;;;6244561;23;20011;-79
2021/03/30 07:43:32;;;;;;;16.27;9.20;;;;;;;;;;6217135;23;20083;-79
2021/03/30 07:46:00;;;;;;;20.13;9.35;;;;;;;;;;6192797;22;20015;-79
2021/03/30 07:48:28;;;;;;;16.83;9.50;;;;;;;;;;6220004;23;20023;-78
2021/03/30 07:51:07;;;;;;;13.50;9.20;;;;;;;;;;6216865;23;20060;-77
2021/03/30 07:53:48;;;;;;;18.65;8.35;;;;;;;;;;6227756;23;20428;-83
2021/03/30 07:56:27;;;;;;;20.60;9.20;;;;;;;;;;6222770;23;20000;-79
2021/03/30 07:58:57;;;;;;;13.85;9.25;;;;;;;;;;6220587;23;20083;-79
2021/03/30 08:01:24;;;;;;;19.65;9.30;;;;;;;;;;6224516;23;20026;-80
2021/03/30 08:03:51;;;;;;;16.85;10.25;;;;;;;;;;6233773;23;20008;-81
2021/03/30 08:06:22;;;;;;;19.42;9.63;;;;;;;;;;6209609;23;20025;-80
2021/03/30 08:08:51;;;;;;;20.40;10.90;;;;;;;;;;6261355;23;20010;-80
2021/03/30 08:11:41;;;;;;;22.50;10.93;;;;;;;;;;6235744;22;20031;-80
2021/03/30 08:14:10;;;;;;;21.67;10.32;;;;;;;;;;6239160;23;20051;-81
2021/03/30 08:16:36;;;;;;;24.30;9.70;;;;;;;;;;6238407;22;20001;-80
2021/03/30 08:19:21;;;;;;;16.38;10.18;;;;;;;;;;6229166;23;20404;-79
2021/03/30 08:21:54;;;;;;;27.10;11.23;;;;;;;;;;6218907;22;20020;-78
2021/03/30 08:24:20;;;;;;;22.77;11.40;;;;;;;;;;6227338;22;20065;-79
2021/03/30 08:26:47;;;;;;;24.00;9.73;;;;;;;;;;6239223;22;20004;-79
2021/03/30 08:29:14;;;;;;;23.20;11.27;;;;;;;;;;6259715;23;20364;-79
2021/03/30 08:31:42;;;;;;;26.20;10.93;;;;;;;;;;6250766;23;20057;-79
2021/03/30 08:34:19;;;;;;;21.40;11.60;;;;;;;;;;6223103;22;20011;-79
2021/03/30 08:36:45;;;;;;;27.13;14.18;;;;;;;;;;6222691;22;20012;-79
2021/03/30 08:39:31;;;;;;;21.52;12.73;;;;;;;;;;6227998;22;20063;-79
2021/03/30 08:41:58;;;;;;;23.50;12.70;;;;;;;;;;6258006;23;20008;-80
2021/03/30 08:44:39;;;;;;;25.58;13.80;;;;;;;;;;6233983;22;20011;-80
2021/03/30 08:47:06;;;;;;;26.75;14.07;;;;;;;;;;6234898;22;20004;-79
2021/03/30 08:49:35;;;;;;;29.08;14.55;;;;;;;;;;6243154;22;20010;-79
2021/03/30 08:52:01;;;;;;;25.42;12.80;;;;;;;;;;6244002;22;20015;-78
2021/03/30 08:54:31;;;;;;;28.90;13.57;;;;;;;;;;6235571;22;20008;-80
2021/03/30 08:56:58;;;;;;;27.23;13.85;;;;;;;;;;6234926;22;20015;-81
2021/03/30 08:59:26;;;;;;;26.17;12.63;;;;;;;;;;6233326;22;20004;-81
2021/03/30 09:01:58;;;;;;;32.78;14.13;;;;;;;;;;6238394;22;20004;-80
2021/03/30 09:04:25;;;;;;;29.73;10.60;;;;;;;;;;6244136;22;20000;-81
2021/03/30 09:06:54;;;;;;;31.10;13.77;;;;;;;;;;6235060;22;20000;-81
2021/03/30 09:09:22;;;;;;;29.50;13.02;;;;;;;;;;6234469;22;20008;-80
2021/03/30 09:11:48;;;;;;;24.00;13.25;;;;;;;;;;6233053;22;20017;-81
2021/03/30 09:17:18;;;;;;;21.13;10.68;;;;;;;;;;6266707;23;20015;-80
2021/03/30 09:22:16;;;;;;;23.15;10.68;;;;;;;;;;6251384;22;20020;-81
2021/03/30 09:25:13;;;;;;;23.00;11.98;;;;;;;;;;6229714;22;20064;-81
2021/03/30 09:27:40;;;;;;;24.48;10.85;;;;;;;;;;6229855;22;20116;-81
2021/03/30 09:30:17;;;;;;;22.15;11.10;;;;;;;;;;6229353;22;20005;-81
2021/03/30 09:35:54;;;;;;;20.02;11.40;;;;;;;;;;6226866;23;20022;-79
2021/03/30 09:41:37;;;;;;;27.52;11.15;;;;;;;;;;6233467;23;20012;-79
2021/03/30 09:44:04;;;;;;;15.75;9.18;;;;;;;;;;6195168;22;20042;-79
2021/03/30 09:46:30;;;;;;;18.00;9.80;;;;;;;;;;6196690;22;20058;-79
2021/03/30 09:48:57;;;;;;;17.35;8.50;;;;;;;;;;6227859;22;20012;-79
2021/03/30 09:51:32;;;;;;;29.42;9.50;;;;;;;;;;6224059;22;20431;-79
2021/03/30 09:57:38;;;;;;;17.80;9.43;;;;;;;;;;6234119;23;20003;-80
2021/03/30 10:00:13;;;;;;;19.60;9.63;;;;;;;;;;6227617;22;20004;-79
2021/03/30 10:02:40;;;;;;;17.52;9.30;;;;;;;;;;6221634;22;20023;-79
2021/03/30 10:05:10;;;;;;;26.50;11.50;;;;;;;;;;6202330;22;20008;-79
2021/03/30 10:08:03;;;;;;;14.50;9.80;;;;;;;;;;6223015;22;20008;-79
2021/03/30 10:10:43;;;;;;;18.75;11.00;;;;;;;;;;6226367;22;20016;-79
2021/03/30 10:13:23;;;;;;;22.40;10.50;;;;;;;;;;6230627;22;20065;-79
2021/03/30 10:15:50;;;;;;;18.25;9.30;;;;;;;;;;6230233;23;20008;-79
2021/03/30 10:18:17;;;;;;;29.00;10.38;;;;;;;;;;6222788;22;20004;-79
2021/03/30 10:20:48;;;;;;;26.77;9.95;;;;;;;;;;6196257;22;20013;-79
2021/03/30 10:29:39;;;;;;;22.40;8.90;;;;;;;;;;6262202;23;20480;-80
2021/03/30 10:32:09;;;;;;;16.05;7.95;;;;;;;;;;6231207;22;20017;-79
2021/03/30 10:34:35;;;;;;;18.48;7.75;;;;;;;;;;6260664;22;20012;-80
2021/03/30 10:37:06;;;;;;;20.05;8.88;;;;;;;;;;6256201;22;20008;-80
2021/03/30 10:39:37;;;;;;;14.63;7.13;;;;;;;;;;6254081;22;20004;-82
2021/03/30 10:42:06;;;;;;;21.48;12.05;;;;;;;;;;6254188;22;20008;-80
2021/03/30 10:44:34;;;;;;;23.50;11.02;;;;;;;;;;6253971;22;20019;-79
2021/03/30 10:47:11;;;;;;;24.20;12.13;;;;;;;;;;6255821;22;20012;-79
2021/03/30 10:49:37;;;;;;;21.63;11.25;;;;;;;;;;6252835;22;20040;-79
2021/03/30 10:52:04;;;;;;;22.52;11.95;;;;;;;;;;6264601;22;20017;-79
2021/03/30 10:54:30;;;;;;;23.77;12.18;;;;;;;;;;6260732;23;20030;-80
2021/03/30 10:56:56;;;;;;;24.80;12.65;;;;;;;;;;6228781;22;20009;-80
2021/03/30 10:59:25;;;;;;;22.58;11.95;;;;;;;;;;6255798;23;20001;-80
2021/03/30 11:01:51;;;;;;;15.70;7.90;;;;;;;;;;6258124;22;20016;-80
2021/03/30 11:04:17;;;;;;;25.67;13.32;;;;;;;;;;6255042;23;20000;-80
2021/03/30 11:06:45;;;;;;;19.90;11.35;;;;;;;;;;6230893;22;20016;-81
2021/03/30 11:09:12;;;;;;;20.17;10.15;;;;;;;;;;6232873;22;20008;-81
2021/03/30 11:11:40;;;;;;;25.63;12.82;;;;;;;;;;6240448;22;20020;-81
2021/03/30 11:14:06;;;;;;;25.02;14.10;;;;;;;;;;6265659;23;20027;-81
2021/03/30 11:16:32;;;;;;;19.45;12.30;;;;;;;;;;6237417;22;20018;-80
2021/03/30 11:18:58;;;;;;;20.45;10.32;;;;;;;;;;6230201;22;20026;-80
2021/03/30 11:21:32;;;;;;;26.00;12.38;;;;;;;;;;6231542;22;20065;-80
2021/03/30 11:24:00;;;;;;;20.48;11.35;;;;;;;;;;6254745;22;20039;-79
2021/03/30 11:26:26;;;;;;;21.92;12.25;;;;;;;;;;6233528;23;20012;-81
2021/03/30 11:28:53;;;;;;;24.15;13.75;;;;;;;;;;6269355;22;20073;-80
2021/03/30 11:34:13;;;;;;;15.38;10.05;;;;;;;;;;6256206;23;20090;-80
2021/03/30 11:36:41;;;;;;;22.00;13.18;;;;;;;;;;6231105;22;20094;-80
2021/03/30 11:39:07;;;;;;;21.30;11.07;;;;;;;;;;6227709;22;20053;-79
2021/03/30 11:41:33;;;;;;;22.70;12.13;;;;;;;;;;6228693;22;20012;-81
2021/03/30 11:43:59;;;;;;;26.83;12.13;;;;;;;;;;6255221;23;20012;-80
2021/03/30 11:46:25;;;;;;;24.33;13.15;;;;;;;;;;6231112;22;20008;-80
2021/03/30 11:48:51;;;;;;;23.35;13.23;;;;;;;;;;6256506;23;20000;-81
2021/03/30 11:51:18;;;;;;;21.38;11.98;;;;;;;;;;6256194;22;20015;-79
2021/03/30 11:53:44;;;;;;;14.68;7.82;;;;;;;;;;6235112;22;20091;-79
2021/03/30 11:56:11;;;;;;;17.83;10.27;;;;;;;;;;6236318;22;20012;-81
2021/03/30 11:58:37;;;;;;;23.17;13.52;;;;;;;;;;6232624;22;20088;-81
2021/03/30 12:01:10;;;;;;;19.88;11.40;;;;;;;;;;6255512;22;20012;-80
2021/03/30 12:03:38;;;;;;;17.98;11.23;;;;;;;;;;6241505;22;20026;-79
2021/03/30 12:06:07;;;;;;;22.60;13.63;;;;;;;;;;6269454;22;20012;-80
2021/03/30 12:08:34;;;;;;;22.65;11.80;;;;;;;;;;6261094;22;20015;-81
2021/03/30 12:11:00;;;;;;;23.77;12.32;;;;;;;;;;6255390;22;20016;-80
2021/03/30 12:13:27;;;;;;;23.77;13.68;;;;;;;;;;6260758;22;19999;-80
2021/03/30 12:15:53;;;;;;;20.15;14.75;;;;;;;;;;6238360;22;20012;-80
2021/03/30 12:18:19;;;;;;;23.23;14.45;;;;;;;;;;6267342;22;20000;-81
2021/03/30 12:20:46;;;;;;;22.45;13.40;;;;;;;;;;6269808;22;20018;-82
2021/03/30 12:23:12;;;;;;;22.45;12.32;;;;;;;;;;6236235;22;20012;-80
2021/03/30 12:25:38;;;;;;;24.42;13.05;;;;;;;;;;6256430;22;20085;-81
2021/03/30 12:31:08;;;;;;;28.52;15.75;;;;;;;;;;6254466;23;20019;-81
2021/03/30 12:36:38;;;;;;;14.75;9.13;;;;;;;;;;6258673;23;19999;-81
2021/03/30 12:39:04;;;;;;;22.98;12.52;;;;;;;;;;6257691;22;20556;-81
2021/03/30 12:41:30;;;;;;;26.23;13.52;;;;;;;;;;6255995;23;20000;-81
2021/03/30 12:43:56;;;;;;;17.20;10.60;;;;;;;;;;6233750;22;20004;-81
2021/03/30 12:46:22;;;;;;;27.48;13.50;;;;;;;;;;6265240;23;20021;-81
2021/03/30 12:48:48;;;;;;;21.23;11.75;;;;;;;;;;6263730;22;20008;-80
2021/03/30 12:51:15;;;;;;;22.58;12.85;;;;;;;;;;6266892;22;20012;-80
2021/03/30 12:53:41;;;;;;;23.55;14.15;;;;;;;;;;6267594;22;20425;-81
2021/03/30 12:56:08;;;;;;;23.38;13.88;;;;;;;;;;6240466;22;20080;-82
2021/03/30 12:58:34;;;;;;;24.48;12.98;;;;;;;;;;6267594;22;20012;-80
2021/03/30 13:01:00;;;;;;;22.38;12.93;;;;;;;;;;6243501;22;20008;-80
2021/03/30 13:03:26;;;;;;;19.52;11.32;;;;;;;;;;6266262;22;20004;-81
2021/03/30 13:05:53;;;;;;;20.35;12.15;;;;;;;;;;6261857;22;20011;-79
2021/03/30 13:08:19;;;;;;;25.40;13.70;;;;;;;;;;6264916;23;20016;-79
2021/03/30 13:10:45;;;;;;;20.52;9.55;;;;;;;;;;6262977;22;20011;-80
2021/03/30 13:13:13;;;;;;;24.30;13.90;;;;;;;;;;6243069;22;20031;-77
2021/03/30 13:18:46;;;;;;;17.38;9.95;;;;;;;;;;6262910;23;20014;-79
2021/03/30 13:24:26;;;;;;;22.88;13.52;;;;;;;;;;6258794;23;20313;-80
2021/03/30 13:29:58;;;;;;;22.50;14.65;;;;;;;;;;6250008;23;20035;-79
2021/03/30 13:32:24;;;;;;;24.65;16.95;;;;;;;;;;6244921;22;20016;-79
2021/03/30 13:34:50;;;;;;;25.67;15.80;;;;;;;;;;6244127;22;20009;-80
2021/03/30 13:37:17;;;;;;;23.30;16.73;;;;;;;;;;6217706;22;20352;-79
2021/03/30 13:39:43;;;;;;;30.95;16.13;;;;;;;;;;6244553;23;20463;-81
2021/03/30 13:42:14;;;;;;;27.58;15.43;;;;;;;;;;6244069;22;20438;-81
2021/03/30 13:44:40;;;;;;;28.50;18.30;;;;;;;;;;6247357;22;20008;-79
2021/03/30 13:47:09;;;;;;;27.00;16.20;;;;;;;;;;6218182;22;20008;-81
2021/03/30 13:49:36;;;;;;;25.02;15.05;;;;;;;;;;6244806;22;19996;-82
2021/03/30 13:52:03;;;;;;;25.27;14.57;;;;;;;;;;6246311;22;20015;-82
2021/03/30 13:54:29;;;;;;;21.98;11.38;;;;;;;;;;6244287;22;20019;-82
2021/03/30 13:56:56;;;;;;;27.95;16.27;;;;;;;;;;6217086;22;20008;-82
2021/03/30 13:59:22;;;;;;;24.45;10.68;;;;;;;;;;6242578;22;20015;-82
2021/03/30 14:01:49;;;;;;;38.78;20.98;;;;;;;;;;6243737;22;20039;-79
2021/03/30 14:04:15;;;;;;;35.80;20.00;;;;;;;;;;6217129;22;20013;-81
2021/03/30 14:06:42;;;;;;;29.98;17.83;;;;;;;;;;6242481;22;20434;-80
2021/03/30 14:09:08;;;;;;;30.77;17.77;;;;;;;;;;6241704;22;20012;-81
2021/03/30 14:11:35;;;;;;;32.17;18.38;;;;;;;;;;6241881;22;20042;-83
2021/03/30 14:14:10;;;;;;;32.60;20.13;;;;;;;;;;6241845;22;20019;-84
2021/03/30 14:16:45;;;;;;;35.28;21.50;;;;;;;;;;6242327;22;20012;-82
2021/03/30 14:20:13;;;;;;;26.60;16.02;;;;;;;;;;6219043;22;20012;-82
2021/03/30 14:22:10;;;;;;;28.42;18.40;;;;;;;;;;6230019;23;20012;-82
2021/03/30 14:24:57;;;;;;;32.22;18.92;;;;;;;;;;6235051;23;20095;-83
2021/03/30 14:27:25;;;;;;;38.05;19.60;;;;;;;;;;6243777;22;20004;-82
2021/03/30 14:29:51;;;;;;;30.50;19.20;;;;;;;;;;6217012;22;20008;-82
2021/03/30 14:32:36;;;;;;;32.90;20.58;;;;;;;;;;6216583;22;20462;-82
2021/03/30 14:35:02;;;;;;;32.45;21.42;;;;;;;;;;6242364;22;20038;-81
2021/03/30 14:37:33;;;;;;;36.67;22.50;;;;;;;;;;6216486;22;20039;-81
2021/03/30 14:42:46;;;;;;;30.67;19.70;;;;;;;;;;6252879;23;20318;-85
2021/03/30 14:53:11;;;;;;;32.80;19.45;;;;;;;;;;6243058;23;20004;-84
2021/03/30 14:55:42;;;;;;;33.28;20.60;;;;;;;;;;6241862;23;20437;-83
2021/03/30 15:03:12;;;;;;;31.58;19.38;;;;;;;;;;6241401;23;20005;-80
2021/03/30 15:05:39;;;;;;;28.80;17.10;;;;;;;;;;6242244;22;20061;-82
2021/03/30 15:08:05;;;;;;;23.85;14.90;;;;;;;;;;6241104;22;20015;-82
2021/03/30 15:10:31;;;;;;;36.47;21.77;;;;;;;;;;6242658;23;20034;-82
2021/03/30 15:12:57;;;;;;;33.72;19.67;;;;;;;;;;6241254;22;20008;-82
2021/03/30 15:15:29;;;;;;;32.03;21.10;;;;;;;;;;6216133;22;20081;-82
2021/03/30 15:17:55;;;;;;;34.20;21.58;;;;;;;;;;6217311;22;20008;-82
2021/03/30 15:20:22;;;;;;;28.98;19.00;;;;;;;;;;6243183;22;20095;-82
2021/03/30 15:22:48;;;;;;;35.03;22.63;;;;;;;;;;6241252;22;20004;-82
2021/03/30 15:25:15;;;;;;;35.10;21.85;;;;;;;;;;6216109;22;20376;-82
2021/03/30 15:27:41;;;;;;;36.28;23.60;;;;;;;;;;6240374;22;20330;-83
2021/03/30 15:30:10;;;;;;;27.35;17.45;;;;;;;;;;6241257;22;20004;-82